createdAt,value
2023-05-23T00:01:16.680Z,14.50
2023-05-23T00:03:43.519Z,13.93
2023-05-23T00:06:10.194Z,13.97
2023-05-23T00:08:36.718Z,15.37
2023-05-23T00:11:03.261Z,14.50
2023-05-23T00:13:29.829Z,13.10
2023-05-23T00:15:56.378Z,12.53
2023-05-23T00:18:22.985Z,13.10
2023-05-23T00:20:49.496Z,14.27
2023-05-23T00:23:16.018Z,14.83
2023-05-23T00:25:42.723Z,13.53
2023-05-23T00:28:10.436Z,14.10
2023-05-23T00:30:36.955Z,14.90
2023-05-23T00:33:03.580Z,12.60
2023-05-23T00:35:30.212Z,12.37
2023-05-23T00:37:56.816Z,13.17
2023-05-23T00:40:25.963Z,14.30
2023-05-23T00:42:52.541Z,13.68
2023-05-23T00:45:19.247Z,14.87
2023-05-23T00:47:47.112Z,15.37
2023-05-23T00:50:14.399Z,14.67
2023-05-23T00:52:41.954Z,14.53
2023-05-23T00:55:09.099Z,17.43
2023-05-23T00:57:36.424Z,13.80
2023-05-23T01:00:03.111Z,13.27
2023-05-23T01:02:32.301Z,12.57
2023-05-23T01:04:59.306Z,11.70
2023-05-23T01:07:25.815Z,11.10
2023-05-23T01:09:52.492Z,10.63
2023-05-23T01:12:56.343Z,10.93
2023-05-23T01:15:27.188Z,10.13
2023-05-23T01:18:15.984Z,11.30
2023-05-23T01:20:57.212Z,11.50
2023-05-23T01:23:54.705Z,11.43
2023-05-23T01:27:08.656Z,10.97
2023-05-23T01:29:39.053Z,11.97
2023-05-23T01:32:11.071Z,12.47
2023-05-23T01:34:38.481Z,12.73
2023-05-23T01:37:10.886Z,12.50
2023-05-23T01:39:38.119Z,13.23
2023-05-23T01:42:05.074Z,13.30
2023-05-23T01:44:32.977Z,11.73
2023-05-23T01:46:59.541Z,14.57
2023-05-23T01:49:27.987Z,14.03
2023-05-23T01:51:54.619Z,13.00
2023-05-23T01:54:21.204Z,14.23
2023-05-23T01:56:48.413Z,14.40
2023-05-23T01:59:15.099Z,14.60
2023-05-23T02:01:41.957Z,15.63
2023-05-23T02:04:09.165Z,14.13
2023-05-23T02:06:35.717Z,14.97
2023-05-23T02:09:02.244Z,13.93
2023-05-23T02:11:28.773Z,15.27
2023-05-23T02:13:57.085Z,14.77
2023-05-23T02:16:23.662Z,14.30
2023-05-23T02:18:50.280Z,14.93
2023-05-23T02:21:16.782Z,14.77
2023-05-23T02:23:43.406Z,15.60
2023-05-23T02:26:09.933Z,16.67
2023-05-23T02:28:36.536Z,13.20
2023-05-23T02:31:03.130Z,14.93
2023-05-23T02:33:29.711Z,14.27
2023-05-23T02:35:56.225Z,14.30
2023-05-23T02:38:22.755Z,14.77
2023-05-23T02:40:49.345Z,15.83
2023-05-23T02:43:15.899Z,14.33
2023-05-23T02:45:42.832Z,13.57
2023-05-23T02:48:09.828Z,14.30
2023-05-23T02:50:36.596Z,15.10
2023-05-23T02:53:03.125Z,15.93
2023-05-23T02:55:29.700Z,13.67
2023-05-23T02:57:58.408Z,16.43
2023-05-23T03:00:25.254Z,15.97
2023-05-23T03:02:51.904Z,15.27
2023-05-23T03:05:18.700Z,15.40
2023-05-23T03:07:45.242Z,13.03
2023-05-23T03:10:11.819Z,14.37
2023-05-23T03:12:38.367Z,14.00
2023-05-23T03:15:05.464Z,14.43
2023-05-23T03:17:37.195Z,13.68
2023-05-23T03:20:06.977Z,14.57
2023-05-23T03:22:33.467Z,13.67
2023-05-23T03:25:00.000Z,13.43
2023-05-23T03:27:26.583Z,12.63
2023-05-23T03:29:53.115Z,10.80
2023-05-23T03:32:19.630Z,13.17
2023-05-23T03:34:46.236Z,13.00
2023-05-23T03:37:12.781Z,13.27
2023-05-23T03:39:39.998Z,13.40
2023-05-23T03:42:07.282Z,12.90
2023-05-23T03:44:33.781Z,12.20
2023-05-23T03:47:00.323Z,13.67
2023-05-23T03:49:26.831Z,11.70
2023-05-23T03:51:53.428Z,11.67
2023-05-23T03:54:19.945Z,12.23
2023-05-23T03:56:46.472Z,12.23
2023-05-23T03:59:12.951Z,10.40
2023-05-23T04:01:39.466Z,11.03
2023-05-23T04:04:06.113Z,11.20
2023-05-23T04:06:32.723Z,10.20
2023-05-23T04:08:59.277Z,10.23
2023-05-23T04:11:25.801Z,10.07
2023-05-23T04:13:52.341Z,9.60
2023-05-23T04:16:19.167Z,10.33
2023-05-23T04:18:45.821Z,9.57
2023-05-23T04:21:18.372Z,10.20
2023-05-23T04:23:44.966Z,10.77
2023-05-23T04:26:11.744Z,10.97
2023-05-23T04:28:38.316Z,9.77
2023-05-23T04:31:05.045Z,9.40
2023-05-23T04:33:31.875Z,9.90
2023-05-23T04:35:58.461Z,10.00
2023-05-23T04:38:25.268Z,10.00
2023-05-23T04:40:54.199Z,8.73
2023-05-23T04:43:20.762Z,10.07
2023-05-23T04:45:48.011Z,9.60
2023-05-23T04:48:14.576Z,9.23
2023-05-23T04:50:41.120Z,9.43
2023-05-23T04:53:07.705Z,8.87
2023-05-23T04:55:35.382Z,9.97
2023-05-23T04:58:01.980Z,9.30
2023-05-23T05:00:28.502Z,9.80
2023-05-23T05:02:55.150Z,9.40
2023-05-23T05:05:24.866Z,9.07
2023-05-23T05:07:51.558Z,9.68
2023-05-23T05:10:18.064Z,8.90
2023-05-23T05:12:47.854Z,10.27
2023-05-23T05:15:14.509Z,10.10
2023-05-23T05:17:44.543Z,10.30
2023-05-23T05:20:15.915Z,8.93
2023-05-23T05:22:42.508Z,11.03
2023-05-23T05:25:10.270Z,9.70
2023-05-23T05:27:37.206Z,10.07
2023-05-23T05:30:13.044Z,10.47
2023-05-23T05:32:39.577Z,9.90
2023-05-23T05:35:06.604Z,10.07
2023-05-23T05:37:36.149Z,9.70
2023-05-23T05:40:04.338Z,8.15
2023-05-23T05:42:33.866Z,9.33
2023-05-23T05:45:00.619Z,9.52
2023-05-23T05:47:27.254Z,9.37
2023-05-23T05:49:53.794Z,9.60
2023-05-23T05:52:20.386Z,9.80
2023-05-23T05:54:46.892Z,9.80
2023-05-23T05:57:13.473Z,10.10
2023-05-23T05:59:40.036Z,9.43
2023-05-23T06:02:06.736Z,9.87
2023-05-23T06:04:33.311Z,9.50
2023-05-23T06:06:59.938Z,9.63
2023-05-23T06:09:26.493Z,9.27
2023-05-23T06:11:53.011Z,9.37
2023-05-23T06:14:20.152Z,10.67
2023-05-23T06:16:47.416Z,9.50
2023-05-23T06:19:14.228Z,9.53
2023-05-23T06:21:43.321Z,9.13
2023-05-23T06:24:10.150Z,8.93
2023-05-23T06:26:36.725Z,8.77
2023-05-23T06:29:03.531Z,7.63
2023-05-23T06:31:30.140Z,7.00
2023-05-23T06:33:56.845Z,7.63
2023-05-23T06:36:23.959Z,7.27
2023-05-23T06:38:52.400Z,7.05
2023-05-23T06:41:18.981Z,6.53
2023-05-23T06:43:46.505Z,7.37
2023-05-23T06:46:13.160Z,6.97
2023-05-23T06:48:39.973Z,6.43
2023-05-23T06:51:06.575Z,6.70
2023-05-23T06:53:33.115Z,6.30
2023-05-23T06:55:59.785Z,6.90
2023-05-23T06:58:26.356Z,5.93
2023-05-23T07:00:52.881Z,6.33
2023-05-23T07:03:19.451Z,6.17
2023-05-23T07:05:46.020Z,6.40
2023-05-23T07:08:12.618Z,7.07
2023-05-23T07:10:39.321Z,6.63
2023-05-23T07:13:06.108Z,6.67
2023-05-23T07:15:32.643Z,7.20
2023-05-23T07:17:59.297Z,5.93
2023-05-23T07:20:27.638Z,5.50
2023-05-23T07:22:54.149Z,6.30
2023-05-23T07:25:20.654Z,6.00
2023-05-23T07:27:47.440Z,6.10
2023-05-23T07:30:14.006Z,5.83
2023-05-23T07:32:40.579Z,6.20
2023-05-23T07:35:07.426Z,7.00
2023-05-23T07:37:33.999Z,5.67
2023-05-23T07:40:01.611Z,5.80
2023-05-23T07:42:28.107Z,5.80
2023-05-23T07:44:54.612Z,5.57
2023-05-23T07:47:23.304Z,5.27
2023-05-23T07:49:50.488Z,5.65
2023-05-23T07:52:17.041Z,5.30
2023-05-23T07:54:43.630Z,6.33
2023-05-23T07:57:10.297Z,6.43
2023-05-23T07:59:36.903Z,6.27
2023-05-23T08:02:03.691Z,6.60
2023-05-23T08:04:30.816Z,6.70
2023-05-23T08:07:05.392Z,6.10
2023-05-23T08:09:33.899Z,6.87
2023-05-23T08:12:00.884Z,5.97
2023-05-23T08:14:42.393Z,6.87
2023-05-23T08:17:14.583Z,6.53
2023-05-23T08:19:41.301Z,6.50
2023-05-23T08:22:07.851Z,6.60
2023-05-23T08:24:34.386Z,7.10
2023-05-23T08:27:01.004Z,5.33
2023-05-23T08:29:27.514Z,5.80
2023-05-23T08:31:54.089Z,6.03
2023-05-23T08:34:20.635Z,5.37
2023-05-23T08:36:47.197Z,6.30
2023-05-23T08:39:14.294Z,5.70
2023-05-23T08:41:40.943Z,5.10
2023-05-23T08:44:07.459Z,5.90
2023-05-23T08:46:34.298Z,6.10
2023-05-23T08:49:00.880Z,5.53
2023-05-23T08:51:28.057Z,7.70
2023-05-23T08:53:54.935Z,8.50
2023-05-23T08:56:21.722Z,8.90
2023-05-23T08:58:48.377Z,8.10
2023-05-23T09:01:15.345Z,6.77
2023-05-23T09:03:41.999Z,6.40
2023-05-23T09:06:09.474Z,5.70
2023-05-23T09:08:36.482Z,6.07
2023-05-23T09:11:04.258Z,6.67
2023-05-23T09:13:34.042Z,5.80
2023-05-23T09:16:05.496Z,6.27
2023-05-23T09:18:37.869Z,6.60
2023-05-23T09:21:04.906Z,6.10
2023-05-23T09:23:32.316Z,6.13
2023-05-23T09:26:06.686Z,5.93
2023-05-23T09:28:34.108Z,6.50
2023-05-23T09:31:01.625Z,7.47
2023-05-23T09:33:43.635Z,8.37
2023-05-23T09:36:10.186Z,8.97
2023-05-23T09:38:41.355Z,8.10
2023-05-23T09:41:08.144Z,8.87
2023-05-23T09:43:34.753Z,8.33
2023-05-23T09:46:07.454Z,8.53
2023-05-23T09:48:34.020Z,8.80
2023-05-23T09:51:04.272Z,8.30
2023-05-23T09:53:30.888Z,8.20
2023-05-23T09:55:59.195Z,8.07
2023-05-23T09:58:28.022Z,7.03
2023-05-23T10:00:56.675Z,7.60
2023-05-23T10:03:27.636Z,8.13
2023-05-23T10:05:58.007Z,8.17
2023-05-23T10:08:30.461Z,7.63
2023-05-23T10:10:57.061Z,9.10
2023-05-23T10:13:27.969Z,8.97
2023-05-23T10:16:01.248Z,9.03
2023-05-23T10:18:30.100Z,8.73
2023-05-23T10:20:57.970Z,8.48
2023-05-23T10:23:24.567Z,9.10
2023-05-23T10:25:51.548Z,8.63
2023-05-23T10:28:18.424Z,8.20
2023-05-23T10:30:45.702Z,7.47
2023-05-23T10:33:14.364Z,6.63
2023-05-23T10:36:02.788Z,7.30
2023-05-23T10:38:42.582Z,6.20
2023-05-23T10:41:32.953Z,5.73
2023-05-23T10:44:27.619Z,5.60
2023-05-23T10:46:56.136Z,4.70
2023-05-23T10:49:41.134Z,3.95
2023-05-23T10:52:08.923Z,4.30
2023-05-23T10:54:37.041Z,4.60
2023-05-23T10:57:04.767Z,5.13
2023-05-23T10:59:31.470Z,5.77
2023-05-23T11:01:58.439Z,5.33
2023-05-23T11:04:26.238Z,4.73
2023-05-23T11:06:54.011Z,4.70
2023-05-23T11:09:20.897Z,4.40
2023-05-23T11:12:00.281Z,4.77
2023-05-23T11:17:20.069Z,4.37
2023-05-23T11:19:58.847Z,4.70
2023-05-23T11:22:29.157Z,4.70
2023-05-23T11:24:57.551Z,5.10
2023-05-23T11:27:37.817Z,5.50
2023-05-23T11:30:11.338Z,5.50
2023-05-23T11:32:38.046Z,5.30
2023-05-23T11:35:06.433Z,5.63
2023-05-23T11:37:33.268Z,7.00
2023-05-23T11:40:28.473Z,6.27
2023-05-23T11:42:55.547Z,6.17
2023-05-23T11:45:25.968Z,5.80
2023-05-23T11:47:53.251Z,6.40
2023-05-23T11:50:19.983Z,5.10
2023-05-23T11:52:47.198Z,5.90
2023-05-23T11:55:13.840Z,5.23
2023-05-23T11:57:40.393Z,6.10
2023-05-23T12:00:08.314Z,5.23
2023-05-23T12:02:42.810Z,5.87
2023-05-23T12:05:14.035Z,5.27
2023-05-23T12:07:44.069Z,5.53
2023-05-23T12:10:11.716Z,4.87
2023-05-23T12:12:38.941Z,5.00
2023-05-23T12:15:05.983Z,5.57
2023-05-23T12:17:32.669Z,5.17
2023-05-23T12:19:59.698Z,4.97
2023-05-23T12:22:28.048Z,4.47
2023-05-23T12:24:55.410Z,4.77
2023-05-23T12:27:34.470Z,5.50
2023-05-23T12:30:11.266Z,4.93
2023-05-23T12:32:42.177Z,5.63
2023-05-23T12:35:10.170Z,5.20
2023-05-23T12:37:41.171Z,6.10
2023-05-23T12:40:15.073Z,6.80
2023-05-23T12:42:51.927Z,6.20
2023-05-23T12:45:19.894Z,5.97
2023-05-23T12:47:46.497Z,5.20
2023-05-23T12:50:13.057Z,4.53
2023-05-23T12:52:40.082Z,4.40
2023-05-23T12:55:07.944Z,5.10
2023-05-23T12:57:35.111Z,4.37
2023-05-23T13:00:01.845Z,4.60
2023-05-23T13:02:28.747Z,4.90
2023-05-23T13:04:55.379Z,7.10
2023-05-23T13:07:22.787Z,7.23
2023-05-23T13:09:49.490Z,5.60
2023-05-23T13:12:16.034Z,6.47
2023-05-23T13:14:42.568Z,6.63
2023-05-23T13:17:09.137Z,7.87
2023-05-23T13:19:35.765Z,7.33
2023-05-23T13:22:02.869Z,6.30
2023-05-23T13:24:29.345Z,6.20
2023-05-23T13:26:57.284Z,6.47
2023-05-23T13:29:23.933Z,6.60
2023-05-23T13:31:50.465Z,7.63
2023-05-23T13:34:18.024Z,7.87
2023-05-23T13:36:44.640Z,6.70
2023-05-23T13:39:11.194Z,6.53
2023-05-23T13:41:37.807Z,6.77
2023-05-23T13:44:04.343Z,7.27
2023-05-23T13:46:30.977Z,6.83
2023-05-23T13:48:57.572Z,6.00
2023-05-23T13:51:24.132Z,6.50
2023-05-23T13:53:50.639Z,7.07
2023-05-23T13:56:17.162Z,6.23
2023-05-23T13:58:48.746Z,6.83
2023-05-23T14:01:15.540Z,6.50
2023-05-23T14:03:45.029Z,7.50
2023-05-23T14:06:11.821Z,6.23
2023-05-23T14:08:38.446Z,6.23
2023-05-23T14:11:05.038Z,6.63
2023-05-23T14:13:31.791Z,6.30
2023-05-23T14:15:58.343Z,6.20
2023-05-23T14:18:24.922Z,5.20
2023-05-23T14:20:51.486Z,6.60
2023-05-23T14:23:18.923Z,6.03
2023-05-23T14:25:45.641Z,6.00
2023-05-23T14:28:13.645Z,6.70
2023-05-23T14:30:40.209Z,6.40
2023-05-23T14:33:09.962Z,6.23
2023-05-23T14:35:37.521Z,6.87
2023-05-23T14:38:04.033Z,7.13
2023-05-23T14:40:30.556Z,7.77
2023-05-23T14:42:57.083Z,7.70
2023-05-23T14:45:23.666Z,7.37
2023-05-23T14:47:50.337Z,6.00
2023-05-23T14:50:19.044Z,6.13
2023-05-23T14:52:45.580Z,5.80
2023-05-23T14:55:12.118Z,6.33
2023-05-23T14:57:39.427Z,5.83
2023-05-23T15:00:06.866Z,6.00
2023-05-23T15:02:33.700Z,5.77
2023-05-23T15:05:00.316Z,5.70
2023-05-23T15:07:28.580Z,5.20
2023-05-23T15:09:55.271Z,5.10
2023-05-23T15:12:22.166Z,5.80
2023-05-23T15:14:49.296Z,5.70
2023-05-23T15:17:16.350Z,5.07
2023-05-23T15:19:43.326Z,5.23
2023-05-23T15:22:18.799Z,5.23
2023-05-23T15:24:49.113Z,5.72
2023-05-23T15:27:20.571Z,5.90
2023-05-23T15:29:48.197Z,6.40
2023-05-23T15:32:14.838Z,6.27
2023-05-23T15:34:41.439Z,6.63
2023-05-23T15:37:07.948Z,5.13
2023-05-23T15:39:34.544Z,6.00
2023-05-23T15:42:01.084Z,6.07
2023-05-23T15:44:27.621Z,5.33
2023-05-23T15:46:54.354Z,5.53
2023-05-23T15:49:26.664Z,5.70
2023-05-23T15:51:53.974Z,6.37
2023-05-23T15:54:20.514Z,6.23
2023-05-23T15:56:47.515Z,5.53
2023-05-23T15:59:16.083Z,5.90
2023-05-23T16:01:42.639Z,6.00
2023-05-23T16:04:11.907Z,6.27
2023-05-23T16:06:41.809Z,5.88
2023-05-23T16:09:08.455Z,6.93
2023-05-23T16:11:34.991Z,6.67
2023-05-23T16:14:01.512Z,6.70
2023-05-23T16:16:28.073Z,7.30
2023-05-23T16:18:55.462Z,6.73
2023-05-23T16:21:21.986Z,7.27
2023-05-23T16:23:48.972Z,6.70
2023-05-23T16:26:16.789Z,7.30
2023-05-23T16:28:45.916Z,8.47
2023-05-23T16:31:16.233Z,7.40
2023-05-23T16:33:43.463Z,7.53
2023-05-23T16:36:10.309Z,8.43
2023-05-23T16:38:38.197Z,7.03
2023-05-23T16:41:06.012Z,7.35
2023-05-23T16:43:33.835Z,7.93
2023-05-23T16:46:00.591Z,8.27
2023-05-23T16:48:27.319Z,9.73
2023-05-23T16:50:54.885Z,9.00
2023-05-23T16:53:21.914Z,11.63
2023-05-23T16:55:50.370Z,11.10
2023-05-23T16:58:20.020Z,10.40
2023-05-23T17:00:47.801Z,10.27
2023-05-23T17:03:14.555Z,10.70
2023-05-23T17:05:41.360Z,10.90
2023-05-23T17:08:08.181Z,11.00
2023-05-23T17:10:35.193Z,10.73
2023-05-23T17:13:01.931Z,10.73
2023-05-23T17:15:31.658Z,11.23
2023-05-23T17:17:58.322Z,11.83
2023-05-23T17:20:24.870Z,11.00
2023-05-23T17:22:51.448Z,12.03
2023-05-23T17:25:17.996Z,11.33
2023-05-23T17:27:44.516Z,12.03
2023-05-23T17:30:11.813Z,12.33
2023-05-23T17:32:38.497Z,12.53
2023-05-23T17:35:05.484Z,12.57
2023-05-23T17:37:32.147Z,13.37
2023-05-23T17:39:58.806Z,12.70
2023-05-23T17:42:25.521Z,13.57
2023-05-23T17:44:52.194Z,13.33
2023-05-23T17:47:18.821Z,14.00
2023-05-23T17:49:45.331Z,13.50
2023-05-23T17:52:12.209Z,13.60
2023-05-23T17:54:39.004Z,13.60
2023-05-23T17:57:05.840Z,14.20
2023-05-23T17:59:32.429Z,14.73
2023-05-23T18:01:59.126Z,14.80
2023-05-23T18:04:26.846Z,15.10
2023-05-23T18:06:53.428Z,15.03
2023-05-23T18:09:19.943Z,14.87
2023-05-23T18:11:47.562Z,15.07
2023-05-23T18:14:14.127Z,15.37
2023-05-23T18:16:40.826Z,15.23
2023-05-23T18:19:08.425Z,15.23
2023-05-23T18:21:37.329Z,15.43
2023-05-23T18:24:04.109Z,13.95
2023-05-23T18:26:30.655Z,15.23
2023-05-23T18:28:57.186Z,15.87
2023-05-23T18:31:23.757Z,15.50
2023-05-23T18:33:50.428Z,15.03
2023-05-23T18:36:17.031Z,15.53
2023-05-23T18:38:43.937Z,14.87
2023-05-23T18:41:14.726Z,13.48
2023-05-23T18:43:46.015Z,14.38
2023-05-23T18:46:12.696Z,15.03
2023-05-23T18:48:39.250Z,14.90
2023-05-23T18:51:08.892Z,14.20
2023-05-23T18:53:40.123Z,14.48
2023-05-23T18:56:08.059Z,14.30
2023-05-23T18:58:34.563Z,13.70
2023-05-23T19:01:01.132Z,14.10
2023-05-23T19:03:27.805Z,13.00
2023-05-23T19:05:54.426Z,13.13
2023-05-23T19:08:20.975Z,12.73
2023-05-23T19:10:47.515Z,13.73
2023-05-23T19:13:14.034Z,13.23
2023-05-23T19:15:43.227Z,12.23
2023-05-23T19:18:10.004Z,12.25
2023-05-23T19:20:36.609Z,12.40
2023-05-23T19:23:03.564Z,10.90
2023-05-23T19:25:30.319Z,12.50
2023-05-23T19:27:56.836Z,11.17
2023-05-23T19:30:24.206Z,11.67
2023-05-23T19:32:50.755Z,12.17
2023-05-23T19:35:17.747Z,12.10
2023-05-23T19:37:44.604Z,11.73
2023-05-23T19:40:11.645Z,11.53
2023-05-23T19:42:38.226Z,11.33
2023-05-23T19:45:05.369Z,11.50
2023-05-23T19:47:32.050Z,12.03
2023-05-23T19:49:58.871Z,11.83
2023-05-23T19:52:27.089Z,11.47
2023-05-23T19:54:53.950Z,12.10
2023-05-23T19:57:20.661Z,12.00
2023-05-23T19:59:47.517Z,12.80
2023-05-23T20:02:16.381Z,12.57
2023-05-23T20:04:44.647Z,12.93
2023-05-23T20:07:11.392Z,13.07
2023-05-23T20:09:38.178Z,12.83
2023-05-23T20:12:04.886Z,12.63
2023-05-23T20:14:32.024Z,12.47
2023-05-23T20:16:58.756Z,12.87
2023-05-23T20:19:29.842Z,12.23
2023-05-23T20:21:59.216Z,13.00
2023-05-23T20:24:28.252Z,12.70
2023-05-23T20:26:54.803Z,12.18
2023-05-23T20:29:21.365Z,12.17
2023-05-23T20:31:47.934Z,12.03
2023-05-23T20:34:16.839Z,12.90
2023-05-23T20:36:43.338Z,12.03
2023-05-23T20:39:10.184Z,11.77
2023-05-23T20:41:36.856Z,11.50
2023-05-23T20:44:03.418Z,11.70
2023-05-23T20:46:30.064Z,11.90
2023-05-23T20:48:57.113Z,11.70
2023-05-23T20:51:23.680Z,12.13
2023-05-23T20:53:51.410Z,11.67
2023-05-23T20:56:18.017Z,11.40
2023-05-23T20:58:44.576Z,11.47
2023-05-23T21:01:11.151Z,12.13
2023-05-23T21:03:37.712Z,12.23
2023-05-23T21:06:04.324Z,11.07
2023-05-23T21:08:33.730Z,11.50
2023-05-23T21:11:01.233Z,11.70
2023-05-23T21:13:27.772Z,11.73
2023-05-23T21:15:54.307Z,11.23
2023-05-23T21:18:20.903Z,10.10
2023-05-23T21:20:47.437Z,10.77
2023-05-23T21:23:13.932Z,10.93
2023-05-23T21:25:40.565Z,10.50
2023-05-23T21:28:07.117Z,10.43
2023-05-23T21:30:33.913Z,10.20
2023-05-23T21:33:00.489Z,9.67
2023-05-23T21:35:27.041Z,10.27
2023-05-23T21:37:53.886Z,10.43
2023-05-23T21:40:20.518Z,10.27
2023-05-23T21:42:47.093Z,10.47
2023-05-23T21:45:13.609Z,9.70
2023-05-23T21:47:40.245Z,9.83
2023-05-23T21:50:07.473Z,10.20
2023-05-23T21:52:34.292Z,10.60
2023-05-23T21:55:00.930Z,10.87
2023-05-23T21:57:28.481Z,11.30
2023-05-23T21:59:55.050Z,12.03
2023-05-23T22:02:21.593Z,10.73
2023-05-23T22:04:48.118Z,11.50
2023-05-23T22:07:14.669Z,11.03
2023-05-23T22:09:41.233Z,11.23
2023-05-23T22:12:07.902Z,10.53
2023-05-23T22:14:34.463Z,10.73
2023-05-23T22:17:01.030Z,11.33
2023-05-23T22:19:27.761Z,11.33
2023-05-23T22:21:54.364Z,11.30
2023-05-23T22:24:21.046Z,12.20
2023-05-23T22:26:47.580Z,11.80
2023-05-23T22:29:14.127Z,12.57
2023-05-23T22:31:40.710Z,12.07
2023-05-23T22:34:07.289Z,11.70
2023-05-23T22:36:33.829Z,12.20
2023-05-23T22:39:00.352Z,12.07
2023-05-23T22:41:26.863Z,12.03
2023-05-23T22:43:53.428Z,11.70
2023-05-23T22:46:20.108Z,12.10
2023-05-23T22:48:46.657Z,12.23
2023-05-23T22:51:13.232Z,12.20
2023-05-23T22:53:39.888Z,12.23
2023-05-23T22:56:06.770Z,12.00
2023-05-23T22:58:33.350Z,11.47
2023-05-23T23:00:59.924Z,11.87
2023-05-23T23:03:26.880Z,10.87
2023-05-23T23:05:53.612Z,11.40
2023-05-23T23:08:23.347Z,11.50
2023-05-23T23:10:49.969Z,11.77
2023-05-23T23:13:16.814Z,12.50
2023-05-23T23:15:43.410Z,12.03
2023-05-23T23:18:10.055Z,11.63
2023-05-23T23:20:36.808Z,11.30
2023-05-23T23:23:03.676Z,11.27
2023-05-23T23:25:30.354Z,11.60
2023-05-23T23:27:56.997Z,11.37
2023-05-23T23:30:25.023Z,11.37
2023-05-23T23:32:51.622Z,11.90
2023-05-23T23:35:18.164Z,11.10
2023-05-23T23:37:44.701Z,11.93
2023-05-23T23:40:11.809Z,11.13
2023-05-23T23:42:38.456Z,11.23
2023-05-23T23:45:05.470Z,11.83
2023-05-23T23:47:32.487Z,11.10
2023-05-23T23:49:59.180Z,11.03
2023-05-23T23:52:25.756Z,10.17
2023-05-23T23:54:52.384Z,10.60
2023-05-23T23:57:21.917Z,9.53
2023-05-23T23:59:48.659Z,10.68
